Skip Navigation Links
NOAA logo - Click to go to the NOAA homepage
NOAA's National Weather Service
Alaska Aviation Weather Unit
  NWS logo - Click to go to the NWS homepage
Left Navbar Graphic     10 AKDT = 18 GMT

   
NOAA is celebrating 200 years of science, service, and stewardship. Visit the NOAA 200th celebration Web site to learn more.
USA.gov is the U.S. Government's official Web portal to all Federal, state and local government Web resources and services.
Facebook
NWS on Facebook

Important Change Regarding the AAWU Web Presence

 

Over the last several months, the AAWU has been working to navigate its webpages to a nationally supported server. Security, as well as other needs, have necessitated the change.  We have been given an extension for the site changeover while we diligently work at addressing feedback received. As of July 14, 2017, aawu.arh.noaa.gov will be discontinued. The new AAWU web address is weather.gov/aawu. It is now live and will run in-parallel with the old site until it is discontinued on July 14, 2017. Please continue to send any feedback or questions regarding the new webpages to nws.ar.aawu.webauthors@noaa.gov.  Thank you for your patience during this time of transition.
AAWU Home :: Display TAF Add Bookmark
TAF PASI 261802Z 2618/2718  16012G18KT 4SM -RA BR BKN010 OVC020
      WS020/20025KT
     FM262000 18009KT 5SM -RA BR BKN015 OVC025
     FM270000 17010KT 4SM RA BR SCT007 OVC015
     FM271200 16013KT 5SM -RA BR BKN007 OVC015=



METAR PASI 261253Z 12011G21KT 4SM RA BR OVC039 13/11 A2968= PASI 261346Z 13017G24KT 10SM -RA OVC027 14/11 A2969= SPECI PASI 261346Z 13017G24KT 10SM -RA OVC027 14/11 A2969 RMK AO2 PK WND 10028/1332 P0008 T01390111= METAR PASI 261353Z 11014KT 10SM -RA BKN025 OVC030 14/11 A2969= METAR PASI 261453Z AUTO 13010KT 10SM -RA OVC019 15/12 A2970= PASI 261545Z 16011G19KT 8SM -RA OVC013 15/13 A2972= SPECI PASI 261545Z 16011G19KT 8SM -RA OVC013 15/13 A2972 RMK AO2 RAE1458B17 P0000 T01500133= METAR PASI 261553Z 16016G24KT 7SM OVC013 16/14 A2972= PASI 261614Z 15011G18KT 3SM -RA BR OVC015 15/14 A2971= SPECI PASI 261614Z 15011G18KT 3SM -RA BR OVC015 15/14 A2971 RMK AO2 PK WND 16028/1558 RAB1557 P0003 T01500139= SPECI PASI 261619Z 15010G17KT 120V190 1 3/4SM -RA BR BKN013 OVC018 15/14 A2971 RMK AO2 PK WND 16028/1558 RAB1557 P0003 T01500139= PASI 261637Z 14007G22KT 2 1/2SM -RA BR BKN012 OVC018 15/14 A2972= SPECI PASI 261637Z 14007G22KT 2 1/2SM -RA BR BKN012 OVC018 15/14 A2972 RMK AO2 PK WND 16028/1558 RAB1557 P0006 T01500139= METAR PASI 261653Z 11007KT 090V160 4SM -RA BR OVC012 15/14 A2972= METAR PASI 261753Z 16012G20KT 6SM -RA BR OVC010 15/14 A2975= PASI 261814Z 17015G25KT 2 1/2SM -RA BR FEW008 OVC012 15/14 A2976= SPECI PASI 261814Z 17015G25KT 2 1/2SM -RA BR FEW008 OVC012 15/14 A2976 RMK AO2 P0000 T01500144=
 Alaska TAF Map

NOAA's National Weather Service
Alaska Aviation Weather Unit
6930 Sand Lake Road
Anchorage, AK 99502-1845
Disclaimer
Credits
Glossary
Privacy Policy
About Us
Career Opportunities
Contact AAWU Internet Services Site last modified: April, 17th 2012